createdAt,value
2022-11-20T00:00:46.966Z,9.77
2022-11-20T00:03:33.536Z,8.43
2022-11-20T00:06:21.706Z,9.90
2022-11-20T00:09:08.438Z,9.43
2022-11-20T00:11:54.915Z,9.60
2022-11-20T00:14:42.218Z,9.33
2022-11-20T00:17:30.260Z,9.47
2022-11-20T00:20:17.396Z,9.73
2022-11-20T00:23:04.055Z,9.13
2022-11-20T00:25:50.432Z,9.27
2022-11-20T00:28:37.015Z,8.97
2022-11-20T00:31:23.912Z,7.90
2022-11-20T00:34:12.670Z,8.57
2022-11-20T00:36:59.102Z,8.23
2022-11-20T00:39:45.514Z,8.30
2022-11-20T00:42:33.725Z,7.60
2022-11-20T00:45:20.334Z,8.33
2022-11-20T00:48:07.232Z,7.87
2022-11-20T00:50:55.616Z,7.23
2022-11-20T00:53:42.260Z,7.60
2022-11-20T00:56:29.458Z,7.30
2022-11-20T00:59:15.847Z,7.57
2022-11-20T01:02:02.372Z,8.50
2022-11-20T01:04:48.887Z,6.87
2022-11-20T01:07:36.735Z,6.93
2022-11-20T01:10:23.471Z,7.60
2022-11-20T01:13:27.335Z,7.73
2022-11-20T01:16:16.177Z,7.83
2022-11-20T01:19:05.233Z,8.10
2022-11-20T01:21:53.810Z,7.03
2022-11-20T01:24:41.900Z,8.00
2022-11-20T01:27:28.659Z,6.73
2022-11-20T01:30:15.753Z,7.10
2022-11-20T01:33:02.416Z,6.90
2022-11-20T01:35:49.130Z,6.57
2022-11-20T01:38:35.894Z,6.03
2022-11-20T01:41:42.408Z,6.73
2022-11-20T01:44:51.317Z,6.37
2022-11-20T01:47:41.717Z,6.00
2022-11-20T01:50:30.850Z,6.43
2022-11-20T01:53:20.866Z,6.47
2022-11-20T01:56:11.771Z,6.87
2022-11-20T01:59:03.229Z,6.50
2022-11-20T02:01:49.757Z,6.43
2022-11-20T02:04:36.350Z,6.20
2022-11-20T02:07:24.970Z,6.30
2022-11-20T02:10:12.127Z,6.73
2022-11-20T02:13:16.468Z,6.30
2022-11-20T02:16:05.335Z,6.57
2022-11-20T02:18:52.666Z,7.07
2022-11-20T02:21:45.213Z,6.93
2022-11-20T02:24:33.380Z,6.97
2022-11-20T02:27:20.812Z,7.30
2022-11-20T02:30:09.039Z,6.80
2022-11-20T02:32:55.851Z,6.23
2022-11-20T02:35:45.859Z,6.73
2022-11-20T02:38:32.405Z,6.27
2022-11-20T02:41:20.179Z,6.43
2022-11-20T02:44:07.300Z,6.37
2022-11-20T02:46:53.765Z,6.67
2022-11-20T02:49:40.040Z,6.33
2022-11-20T02:52:27.344Z,6.67
2022-11-20T02:55:14.214Z,6.20
2022-11-20T02:58:02.005Z,6.47
2022-11-20T03:00:48.908Z,6.57
2022-11-20T03:03:35.467Z,6.23
2022-11-20T03:06:21.907Z,5.90
2022-11-20T03:09:08.454Z,6.10
2022-11-20T03:11:54.989Z,6.20
2022-11-20T03:14:42.910Z,6.10
2022-11-20T03:17:30.441Z,5.80
2022-11-20T03:20:17.374Z,6.77
2022-11-20T03:23:04.172Z,6.07
2022-11-20T03:25:50.574Z,5.77
2022-11-20T03:28:37.115Z,5.50
2022-11-20T03:31:26.747Z,6.03
2022-11-20T03:34:13.956Z,6.27
2022-11-20T03:37:00.581Z,6.53
2022-11-20T03:39:47.104Z,5.77
2022-11-20T03:42:48.872Z,5.43
2022-11-20T03:45:35.225Z,6.07
2022-11-20T03:48:23.163Z,6.07
2022-11-20T03:51:11.786Z,5.37
2022-11-20T03:54:00.052Z,6.30
2022-11-20T03:56:46.774Z,6.13
2022-11-20T03:59:33.403Z,6.07
2022-11-20T04:02:19.964Z,5.77
2022-11-20T04:05:08.572Z,5.90
2022-11-20T04:07:55.784Z,6.13
2022-11-20T04:10:42.151Z,6.00
2022-11-20T04:13:28.533Z,5.67
2022-11-20T04:16:15.441Z,5.43
2022-11-20T04:19:03.478Z,5.70
2022-11-20T04:21:51.429Z,5.70
2022-11-20T04:24:38.247Z,5.83
2022-11-20T04:27:24.752Z,5.93
2022-11-20T04:30:12.167Z,5.97
2022-11-20T04:32:58.743Z,5.37
2022-11-20T04:35:48.535Z,6.10
2022-11-20T04:38:36.636Z,5.53
2022-11-20T04:41:24.665Z,6.53
2022-11-20T04:44:11.241Z,5.87
2022-11-20T04:46:57.684Z,5.77
2022-11-20T04:49:44.076Z,6.23
2022-11-20T04:52:31.165Z,5.67
2022-11-20T04:55:19.082Z,6.77
2022-11-20T04:58:05.792Z,6.17
2022-11-20T05:00:52.766Z,5.70
2022-11-20T05:03:42.335Z,6.03
2022-11-20T05:06:29.393Z,6.57
2022-11-20T05:09:15.886Z,5.97
2022-11-20T05:12:03.855Z,6.47
2022-11-20T05:14:50.431Z,6.30
2022-11-20T05:17:36.946Z,6.00
2022-11-20T05:20:23.708Z,6.33
2022-11-20T05:23:10.173Z,6.00
2022-11-20T05:25:59.226Z,5.87
2022-11-20T05:28:47.963Z,7.00
2022-11-20T05:31:34.376Z,9.67
2022-11-20T05:34:20.866Z,9.07
2022-11-20T05:37:07.245Z,6.33
2022-11-20T05:39:53.945Z,6.20
2022-11-20T05:42:40.416Z,5.67
2022-11-20T05:45:28.120Z,5.40
2022-11-20T05:48:14.863Z,6.10
2022-11-20T05:51:02.019Z,6.20
2022-11-20T05:53:49.087Z,6.67
2022-11-20T05:56:35.554Z,5.93
2022-11-20T05:59:22.271Z,5.40
2022-11-20T06:02:10.577Z,5.70
2022-11-20T06:04:57.098Z,5.63
2022-11-20T06:07:43.836Z,4.67
2022-11-20T06:10:30.621Z,5.80
2022-11-20T06:13:16.969Z,5.67
2022-11-20T06:16:03.942Z,5.93
2022-11-20T06:18:51.711Z,6.10
2022-11-20T06:21:38.368Z,5.37
2022-11-20T06:24:26.412Z,5.43
2022-11-20T06:27:12.790Z,5.57
2022-11-20T06:29:59.120Z,5.50
2022-11-20T06:32:45.560Z,6.20
2022-11-20T06:35:33.422Z,5.83
2022-11-20T06:38:20.115Z,6.03
2022-11-20T06:41:07.217Z,5.17
2022-11-20T06:43:54.113Z,5.20
2022-11-20T06:46:40.823Z,5.67
2022-11-20T06:49:28.163Z,4.63
2022-11-20T06:52:15.990Z,4.80
2022-11-20T06:55:02.649Z,5.67
2022-11-20T06:57:53.282Z,5.60
2022-11-20T07:00:43.069Z,5.87
2022-11-20T07:03:30.455Z,5.33
2022-11-20T07:06:16.820Z,5.70
2022-11-20T07:09:08.560Z,5.10
2022-11-20T07:11:58.159Z,5.50
2022-11-20T07:14:44.615Z,6.27
2022-11-20T07:17:31.211Z,5.90
2022-11-20T07:20:17.964Z,5.43
2022-11-20T07:23:04.591Z,5.80
2022-11-20T07:25:52.519Z,5.87
2022-11-20T07:28:39.393Z,5.03
2022-11-20T07:31:25.747Z,6.07
2022-11-20T07:34:12.712Z,5.80
2022-11-20T07:36:59.262Z,5.50
2022-11-20T07:39:45.703Z,5.40
2022-11-20T07:42:33.687Z,5.17
2022-11-20T07:45:20.895Z,5.97
2022-11-20T07:48:07.470Z,5.73
2022-11-20T07:50:56.174Z,5.50
2022-11-20T07:53:42.674Z,5.37
2022-11-20T07:56:29.031Z,5.23
2022-11-20T07:59:17.586Z,5.53
2022-11-20T08:02:04.134Z,5.90
2022-11-20T08:04:50.712Z,6.10
2022-11-20T08:07:40.836Z,5.47
2022-11-20T08:10:27.573Z,6.47
2022-11-20T08:13:31.369Z,6.10
2022-11-20T08:16:19.519Z,5.73
2022-11-20T08:19:06.457Z,6.23
2022-11-20T08:21:53.289Z,6.50
2022-11-20T08:24:39.836Z,6.37
2022-11-20T08:27:26.262Z,6.43
2022-11-20T08:30:14.025Z,6.20
2022-11-20T08:33:06.721Z,6.13
2022-11-20T08:35:53.495Z,6.60
2022-11-20T08:38:39.861Z,6.00
2022-11-20T08:41:26.752Z,6.73
2022-11-20T08:44:13.503Z,5.87
2022-11-20T08:46:59.913Z,6.93
2022-11-20T08:49:47.814Z,6.47
2022-11-20T08:52:39.720Z,7.43
2022-11-20T08:55:26.866Z,6.93
2022-11-20T08:58:13.354Z,6.57
2022-11-20T09:00:59.873Z,6.90
2022-11-20T09:03:46.352Z,7.00
2022-11-20T09:06:34.144Z,6.07
2022-11-20T09:09:21.218Z,6.30
2022-11-20T09:12:08.379Z,5.47
2022-11-20T09:14:55.247Z,5.97
2022-11-20T09:17:41.621Z,6.27
2022-11-20T09:20:29.655Z,5.83
2022-11-20T09:23:17.660Z,5.90
2022-11-20T09:26:05.489Z,5.83
2022-11-20T09:28:55.411Z,6.07
2022-11-20T09:31:44.496Z,5.43
2022-11-20T09:34:30.959Z,6.13
2022-11-20T09:37:17.596Z,5.40
2022-11-20T09:40:06.223Z,6.37
2022-11-20T09:42:59.692Z,6.47
2022-11-20T09:46:08.122Z,6.53
2022-11-20T09:49:06.106Z,6.10
2022-11-20T09:51:59.935Z,5.87
2022-11-20T09:54:46.996Z,5.90
2022-11-20T09:57:39.119Z,6.23
2022-11-20T10:00:25.977Z,7.30
2022-11-20T10:03:18.526Z,6.17
2022-11-20T10:06:07.897Z,6.17
2022-11-20T10:09:02.226Z,6.80
2022-11-20T10:11:57.215Z,6.50
2022-11-20T10:15:12.473Z,7.73
2022-11-20T10:18:13.334Z,6.77
2022-11-20T10:21:08.543Z,6.10
2022-11-20T10:24:13.538Z,7.20
2022-11-20T10:27:12.474Z,7.83
2022-11-20T10:30:04.559Z,6.97
2022-11-20T10:32:54.783Z,7.37
2022-11-20T10:35:45.271Z,7.80
2022-11-20T10:38:37.704Z,7.53
2022-11-20T10:41:33.124Z,8.00
2022-11-20T10:44:37.977Z,7.57
2022-11-20T10:47:29.882Z,7.00
2022-11-20T10:50:22.501Z,8.13
2022-11-20T10:53:19.875Z,7.03
2022-11-20T10:56:13.521Z,8.33
2022-11-20T10:59:22.220Z,8.67
2022-11-20T11:02:20.961Z,7.93
2022-11-20T11:05:17.801Z,8.50
2022-11-20T11:08:07.490Z,9.00
2022-11-20T11:10:56.855Z,10.07
2022-11-20T11:13:43.231Z,9.23
2022-11-20T11:16:29.837Z,9.10
2022-11-20T11:19:16.707Z,9.23
2022-11-20T11:22:18.839Z,9.07
2022-11-20T11:25:05.711Z,10.43
2022-11-20T11:27:54.117Z,8.80
2022-11-20T11:30:46.257Z,8.83
2022-11-20T11:33:35.425Z,9.83
2022-11-20T11:36:25.998Z,9.97
2022-11-20T11:39:17.684Z,9.17
2022-11-20T11:42:04.506Z,9.47
2022-11-20T11:45:08.783Z,9.03
2022-11-20T11:47:57.718Z,8.73
2022-11-20T11:50:51.324Z,9.33
2022-11-20T11:53:43.311Z,9.60
2022-11-20T11:56:33.098Z,9.20
2022-11-20T11:59:27.767Z,10.00
2022-11-20T12:02:27.889Z,9.90
2022-11-20T12:05:26.550Z,10.10
2022-11-20T12:08:19.544Z,10.27
2022-11-20T12:11:09.313Z,10.27
2022-11-20T12:14:05.341Z,8.80
2022-11-20T12:16:54.324Z,9.47
2022-11-20T12:19:41.494Z,10.07
2022-11-20T12:22:42.105Z,12.37
2022-11-20T12:25:32.141Z,11.50
2022-11-20T12:28:46.682Z,9.77
2022-11-20T12:32:00.918Z,9.83
2022-11-20T12:34:57.275Z,9.83
2022-11-20T12:37:52.043Z,9.47
2022-11-20T12:40:47.236Z,9.20
2022-11-20T12:44:09.764Z,11.23
2022-11-20T12:47:11.691Z,9.03
2022-11-20T12:50:05.514Z,9.57
2022-11-20T12:52:58.491Z,8.93
2022-11-20T12:55:52.107Z,8.67
2022-11-20T12:58:47.722Z,8.30
2022-11-20T13:01:44.594Z,7.57
2022-11-20T13:04:51.755Z,8.07
2022-11-20T13:07:38.564Z,7.17
2022-11-20T13:10:51.770Z,7.23
2022-11-20T13:13:49.026Z,7.40
2022-11-20T13:16:40.457Z,7.70
2022-11-20T13:19:29.615Z,7.80
2022-11-20T13:22:27.651Z,8.60
2022-11-20T13:25:25.881Z,7.87
2022-11-20T13:28:31.064Z,7.00
2022-11-20T13:31:32.658Z,7.50
2022-11-20T13:34:26.954Z,7.53
2022-11-20T13:37:30.464Z,8.27
2022-11-20T13:40:24.833Z,8.23
2022-11-20T13:43:23.497Z,7.83
2022-11-20T13:46:11.872Z,8.23
2022-11-20T13:48:59.027Z,7.57
2022-11-20T13:51:48.665Z,8.07
2022-11-20T13:55:02.738Z,7.90
2022-11-20T13:58:12.612Z,7.83
2022-11-20T14:01:03.134Z,7.60
2022-11-20T14:04:05.506Z,8.53
2022-11-20T14:06:53.526Z,7.73
2022-11-20T14:09:40.218Z,7.63
2022-11-20T14:12:32.785Z,6.97
2022-11-20T14:15:31.399Z,7.43
2022-11-20T14:18:23.335Z,8.37
2022-11-20T14:21:11.496Z,7.77
2022-11-20T14:24:06.541Z,7.90
2022-11-20T14:26:54.049Z,7.43
2022-11-20T14:29:42.722Z,9.30
2022-11-20T14:32:32.652Z,8.57
2022-11-20T14:35:25.401Z,7.40
2022-11-20T14:38:15.496Z,8.70
2022-11-20T14:41:09.275Z,8.70
2022-11-20T14:43:59.570Z,8.87
2022-11-20T14:46:47.625Z,7.43
2022-11-20T14:49:35.014Z,7.50
2022-11-20T14:52:23.789Z,7.33
2022-11-20T14:55:15.861Z,7.07
2022-11-20T14:58:04.655Z,7.57
2022-11-20T15:00:56.443Z,7.80
2022-11-20T15:03:44.472Z,8.27
2022-11-20T15:06:32.368Z,8.23
2022-11-20T15:09:18.895Z,7.87
2022-11-20T15:12:06.094Z,8.67
2022-11-20T15:14:52.859Z,8.70
2022-11-20T15:17:42.537Z,7.87
2022-11-20T15:20:33.653Z,9.07
2022-11-20T15:23:21.341Z,8.30
2022-11-20T15:26:08.184Z,7.93
2022-11-20T15:28:55.359Z,8.30
2022-11-20T15:31:44.350Z,8.80
2022-11-20T15:34:31.425Z,8.70
2022-11-20T15:37:19.235Z,9.20
2022-11-20T15:40:07.360Z,8.13
2022-11-20T15:43:11.600Z,9.00
2022-11-20T15:46:02.778Z,10.03
2022-11-20T15:48:53.787Z,9.17
2022-11-20T15:51:42.221Z,10.13
2022-11-20T15:54:30.350Z,10.77
2022-11-20T15:57:17.307Z,10.23
2022-11-20T16:00:03.766Z,10.87
2022-11-20T16:02:50.574Z,12.07
2022-11-20T16:05:37.322Z,12.20
2022-11-20T16:08:24.119Z,12.87
2022-11-20T16:11:14.104Z,14.73
2022-11-20T16:14:17.902Z,14.30
2022-11-20T16:17:05.229Z,13.77
2022-11-20T16:19:52.371Z,13.40
2022-11-20T16:22:38.775Z,14.83
2022-11-20T16:25:25.109Z,14.50
2022-11-20T16:28:17.519Z,14.03
2022-11-20T16:31:11.545Z,9.37
2022-11-20T16:34:00.337Z,10.40
2022-11-20T16:36:46.989Z,9.10
2022-11-20T16:39:33.467Z,9.10
2022-11-20T16:42:20.048Z,10.30
2022-11-20T16:45:08.766Z,9.03
2022-11-20T16:47:55.464Z,9.03
2022-11-20T16:50:49.158Z,8.23
2022-11-20T16:53:35.960Z,8.23
2022-11-20T16:56:24.796Z,8.70
2022-11-20T16:59:11.547Z,8.13
2022-11-20T17:01:59.812Z,8.60
2022-11-20T17:04:46.497Z,8.90
2022-11-20T17:07:33.370Z,9.50
2022-11-20T17:10:20.198Z,11.57
2022-11-20T17:13:07.004Z,12.83
2022-11-20T17:15:53.537Z,12.27
2022-11-20T17:18:41.584Z,16.00
2022-11-20T17:21:29.683Z,15.27
2022-11-20T17:24:16.974Z,15.37
2022-11-20T17:27:03.785Z,14.03
2022-11-20T17:29:50.286Z,12.60
2022-11-20T17:32:36.814Z,12.10
2022-11-20T17:35:24.707Z,12.17
2022-11-20T17:38:11.351Z,12.00
2022-11-20T17:41:04.556Z,12.87
2022-11-20T17:43:51.250Z,10.30
2022-11-20T17:46:38.106Z,10.17
2022-11-20T17:49:24.382Z,10.60
2022-11-20T17:52:12.391Z,10.70
2022-11-20T17:54:59.127Z,10.40
2022-11-20T17:57:53.376Z,9.40
2022-11-20T18:00:39.867Z,8.43
2022-11-20T18:03:26.332Z,8.40
2022-11-20T18:06:14.403Z,8.17
2022-11-20T18:09:04.414Z,8.47
2022-11-20T18:11:52.406Z,8.60
2022-11-20T18:14:39.187Z,8.47
2022-11-20T18:17:26.331Z,8.63
2022-11-20T18:20:28.583Z,8.73
2022-11-20T18:23:16.327Z,8.63
2022-11-20T18:26:04.210Z,8.83
2022-11-20T18:28:51.376Z,9.43
2022-11-20T18:31:38.060Z,8.90
2022-11-20T18:34:25.388Z,9.40
2022-11-20T18:37:15.302Z,8.83
2022-11-20T18:40:01.861Z,9.37
2022-11-20T18:43:07.215Z,9.20
2022-11-20T18:46:02.931Z,9.43
2022-11-20T18:48:49.771Z,9.30
2022-11-20T18:51:36.819Z,9.20
2022-11-20T18:54:25.284Z,9.00
2022-11-20T18:57:14.846Z,8.90
2022-11-20T19:00:08.261Z,9.47
2022-11-20T19:02:55.609Z,8.37
2022-11-20T19:05:42.714Z,9.17
2022-11-20T19:08:29.631Z,9.60
2022-11-20T19:11:16.479Z,9.23
2022-11-20T19:14:03.641Z,8.80
2022-11-20T19:16:51.456Z,8.47
2022-11-20T19:19:38.337Z,12.87
2022-11-20T19:22:25.262Z,9.13
2022-11-20T19:25:11.663Z,8.53
2022-11-20T19:27:58.452Z,9.00
2022-11-20T19:30:45.337Z,8.43
2022-11-20T19:33:33.547Z,9.50
2022-11-20T19:36:22.351Z,9.20
2022-11-20T19:39:12.990Z,8.17
2022-11-20T19:41:59.788Z,7.40
2022-11-20T19:44:46.229Z,8.00
2022-11-20T19:48:00.568Z,8.47
2022-11-20T19:50:40.986Z,7.07
2022-11-20T19:53:27.846Z,8.40
2022-11-20T19:56:14.427Z,8.57
2022-11-20T19:59:01.567Z,8.97
2022-11-20T20:01:48.389Z,8.67
2022-11-20T20:04:35.285Z,9.10
2022-11-20T20:07:23.149Z,8.60
2022-11-20T20:10:11.012Z,9.27
2022-11-20T20:12:58.259Z,9.17
2022-11-20T20:15:44.904Z,8.87
2022-11-20T20:18:31.374Z,9.00
2022-11-20T20:21:19.318Z,7.87
2022-11-20T20:24:08.239Z,8.00
2022-11-20T20:26:58.193Z,7.90
2022-11-20T20:29:45.151Z,8.30
2022-11-20T20:32:32.398Z,8.13
2022-11-20T20:35:19.250Z,7.40
2022-11-20T20:38:06.149Z,6.57
2022-11-20T20:40:54.078Z,7.87
2022-11-20T20:43:58.787Z,7.50
2022-11-20T20:46:45.568Z,7.37
2022-11-20T20:49:33.909Z,6.77
2022-11-20T20:52:20.909Z,6.50
2022-11-20T20:55:08.176Z,7.30
2022-11-20T20:57:56.459Z,7.53
2022-11-20T21:00:42.836Z,6.37
2022-11-20T21:03:32.883Z,6.70
2022-11-20T21:06:19.936Z,6.70
2022-11-20T21:09:09.343Z,6.33
2022-11-20T21:11:55.878Z,6.70
2022-11-20T21:14:43.797Z,5.93
2022-11-20T21:17:30.435Z,6.13
2022-11-20T21:20:31.235Z,6.30
2022-11-20T21:23:17.726Z,6.57
2022-11-20T21:26:06.458Z,6.83
2022-11-20T21:28:52.782Z,6.93
2022-11-20T21:31:40.650Z,6.93
2022-11-20T21:34:27.788Z,6.13
2022-11-20T21:37:14.335Z,6.77
2022-11-20T21:40:01.086Z,6.70
2022-11-20T21:42:47.863Z,6.30
2022-11-20T21:45:34.352Z,6.90
2022-11-20T21:48:22.275Z,6.60
2022-11-20T21:51:10.448Z,6.37
2022-11-20T21:53:57.538Z,5.87
2022-11-20T21:56:43.997Z,6.97
2022-11-20T21:59:30.705Z,6.47
2022-11-20T22:02:17.349Z,6.77
2022-11-20T22:05:05.737Z,7.03
2022-11-20T22:07:52.343Z,6.87
2022-11-20T22:10:38.873Z,6.80
2022-11-20T22:13:43.589Z,7.20
2022-11-20T22:16:30.503Z,6.70
2022-11-20T22:19:18.997Z,6.70
2022-11-20T22:22:07.106Z,5.90
2022-11-20T22:24:53.782Z,6.53
2022-11-20T22:27:40.365Z,7.47
2022-11-20T22:30:27.245Z,6.23
2022-11-20T22:33:14.150Z,6.93
2022-11-20T22:36:02.306Z,7.50
2022-11-20T22:38:50.361Z,6.37
2022-11-20T22:41:36.836Z,7.23
2022-11-20T22:44:23.588Z,6.40
2022-11-20T22:47:11.628Z,6.73
2022-11-20T22:49:58.631Z,6.40
2022-11-20T22:52:44.991Z,6.57
2022-11-20T22:55:34.369Z,6.30
2022-11-20T22:58:21.131Z,6.03
2022-11-20T23:01:12.675Z,6.17
2022-11-20T23:04:00.421Z,5.83
2022-11-20T23:06:46.865Z,6.20
2022-11-20T23:09:33.400Z,7.03
2022-11-20T23:12:21.238Z,6.50
2022-11-20T23:15:09.595Z,6.47
2022-11-20T23:17:56.482Z,5.50
2022-11-20T23:20:43.066Z,5.60
2022-11-20T23:23:29.531Z,6.00
2022-11-20T23:26:17.048Z,5.43
2022-11-20T23:29:06.537Z,5.27
2022-11-20T23:31:53.368Z,6.03
2022-11-20T23:34:39.759Z,6.20
2022-11-20T23:37:26.066Z,6.57
2022-11-20T23:40:13.229Z,7.17
2022-11-20T23:43:17.837Z,5.87
2022-11-20T23:46:07.038Z,6.30
2022-11-20T23:48:53.924Z,5.93
2022-11-20T23:51:40.459Z,5.67
2022-11-20T23:54:27.086Z,6.57
2022-11-20T23:57:13.800Z,5.93
